Share

Grant, NE

Sisco Fertilizer (KNEELSIE2) Elev 3415 ft | 40.84 °N, 101.40 °W | Change Station

Current weather conditions updated 1 second ago

Mostly Cloudy
Mostly Cloudy
65.4 °F
Feels Like 65.4 °F
N
15.0
Wind Variable Wind from ENE
Gusts 16.0 mph
Sunrise 6:01 AM
Sunset 7:30 PM
Moon Waning Gibbous

Tomorrow is forecast to be Much Warmer than today.

Pressure 29.99 in
Visibility 10.0 miles
Clouds Mostly Cloudy 12000 ft
Dew Point 42 °F
Humidity 43%
Rainfall 0.00 in
Snow Depth Not available.
UV 1 out of 16
Pollen 10.80 out of 12
Air Quality Not available.
Flu Activity Sporadic
METAR KOGA 192315Z AUTO 07009KT 10SM BKN120 20/01 A2999 RMK AO2 T02040010

More Conditions Fewer Conditions

Pressure 29.99 in
Visibility 10.0 miles
Clouds Mostly Cloudy 12000 ft
Dew Point 42 °F
Humidity 43%
Rainfall 0.00 in
Snow Depth Not available.
UV 1 out of 16
Pollen 10.80 out of 12
Air Quality Not available.
Flu Activity Sporadic
METAR KOGA 192315Z AUTO 07009KT 10SM BKN120 20/01 A2999 RMK AO2 T02040010

More Conditions Fewer Conditions

10-Day Weather Forecast

Almanac

Astronomy

Apr. 19, 2014 Rise Set
Actual Time 6:01 AM MDT 7:30 PM MDT
Civil Twilight 5:33 AM MDT 7:59 PM MDT
Nautical Twilight 4:58 AM MDT 8:34 PM MDT
Astronomical Twilight 4:21 AM MDT 9:11 PM MDT
Moon No Moon Rise 9:21 AM MDT
Length of Visible Light 14h 26m
Length of Day
13h 28m
Tomorrow will be 2m 32s longer.
Waning Gibbous, 76% of the Moon is Illuminated
Today
Waning Gibbous
Apr 22
Last Quarter
Apr 29
New
May 6
First Quarter
May 14
Full

Today's Extremes

State Highs State Lows

Community

  • New Day
    New Day
  • Happy Easter!
    Happy Easter!
  • poppy bloom near Mazar-e-Sharif
    poppy bloom near Mazar-e-Sharif
  • Happy Easter WU friends!!!!
    Happy Easter WU friends!!!!
  • Skirting the Horizon
    Skirting the Horizon

WunderPhotos

Upload Photos

1,702,965 photos uploaded!

WunderBlogs® & News

Nearby

Snow Depth

Station Depth Elevation
No new snow has been reported.

Coastal Water Temperatures

Place Temperature
No Stations Reporting

Earthquake Activity

City Distance Mag. Time & Date
No recent earthquake activity has been reported nearby.
Minimum magnitude displayed is 2.5.

Nearby Weather Stations

Station Location Temp. Dew Point Humidity Wind Precip. Elev Updated Type
Sisco Fertilizer, Elsie, NE 65.4 °F 42 °F 43% ENE  at  15.0 mph 0.00 in / hr 3415 ft 5:31 PM MDT Rapid Fire
MesoWest BRULE1 , Brule, NE 66 °F - - North  at  - 0.00 in / hr 3281 ft 4:00 PM MDT MADIS
Ogallala, NE 69.6 °F 36 °F 29% ENE  at  1.0 mph 0.00 in / hr 3243 ft 5:30 PM MDT Normal
MesoWest OGALA2 , Ogallala, NE 62 °F - - North  at  - 0.00 in / hr 3172 ft 4:00 PM MDT MADIS
MesoWest BIGSWS , Big Springs, NE 68 °F - - ENE  at  10 mph 0.00 in / hr 3356 ft 4:00 PM MDT MADIS

Show More Stations Show Fewer Stations

What do you think?

We're not finished. Please let us know what you like, what you don't like, and what you are still missing.